Terminal Aerodrome Forecast
Issued by NWS Sterling, VA

Home | Current Version | Previous Version | Text Only | Print | Product List | Glossary On
Versions: 1 2 3 4 5 6 7 8 9 10 11 12 13 14 15 16 17 18 19 20 21 22
850
FTUS41 KLWX 261503 AAC
TAFCHO
TAF AMD
KCHO 261503Z 2615/2712 18007KT P6SM -DZ BKN005 OVC020
     FM261600 18008KT P6SM BKN015 OVC025
     FM270000 18007KT P6SM -SHRA BKN020 OVC025
     FM270300 19006KT 3SM -SHRA BKN008 OVC035
     FM270600 21004KT 1 1/2SM -SHRA BKN003 OVC015
     FM270900 VRB03KT 1SM BR BKN008 OVC010=

USA.gov is the U.S. government's official web portal to all federal, state and local government web resources and services.